Time,TemperatureF,DewpointF,PressureIn,WindDirection,WindDirectionDegrees,WindSpeedMPH,WindSpeedGustMPH,Humidity,HourlyPrecipIn,Conditions,Clouds,dailyrainin,SoftwareType,DateUTC
2013-09-09 00:00:00,62.3,58.7,29.97,West,277,0.0,0.0,88,0.00,CLR,,0.00,WeatherDisplay:10.37,2013-09-09 04:00:00,
2013-09-09 00:15:00,62.0,58.4,29.97,West,277,0.0,0.0,88,0.00,CLR,,0.00,WeatherDisplay:10.37,2013-09-09 04:15:00,
2013-09-09 00:30:00,61.8,58.2,29.97,West,277,0.0,0.0,88,0.00,CLR,,0.00,WeatherDisplay:10.37,2013-09-09 04:30:00,
2013-09-09 00:45:00,61.6,58.0,29.97,West,277,0.0,0.0,88,0.00,SCT,,0.00,WeatherDisplay:10.37,2013-09-09 04:45:00,
2013-09-09 01:00:00,61.6,58.0,29.97,West,277,0.0,0.0,88,0.00,SCT,,0.00,WeatherDisplay:10.37,2013-09-09 05:00:00,
2013-09-09 01:15:00,61.4,57.8,29.98,West,277,0.0,0.0,88,0.00,SCT,,0.00,WeatherDisplay:10.37,2013-09-09 05:15:00,
2013-09-09 01:30:00,61.0,57.4,29.97,West,277,0.0,0.0,88,0.00,SCT,,0.00,WeatherDisplay:10.37,2013-09-09 05:30:00,
2013-09-09 01:45:00,60.9,57.3,29.98,West,277,0.0,0.0,88,0.00,OVC,,0.00,WeatherDisplay:10.37,2013-09-09 05:45:00,
2013-09-09 02:00:00,60.7,57.1,29.98,West,277,0.0,0.0,88,0.00,OVC,,0.00,WeatherDisplay:10.37,2013-09-09 06:00:00,
2013-09-09 02:15:00,60.6,57.0,29.98,West,277,0.0,0.0,88,0.00,OVC,,0.00,WeatherDisplay:10.37,2013-09-09 06:15:00,
2013-09-09 02:30:00,60.4,56.8,29.98,West,277,0.0,0.0,88,0.00,OVC,,0.00,WeatherDisplay:10.37,2013-09-09 06:30:00,
2013-09-09 02:45:00,60.2,56.6,29.99,West,277,0.0,0.0,88,0.00,OVC,,0.00,WeatherDisplay:10.37,2013-09-09 06:45:00,
2013-09-09 03:00:00,59.9,56.3,29.98,West,277,0.0,0.0,88,0.00,OVC,,0.00,WeatherDisplay:10.37,2013-09-09 07:00:00,
2013-09-09 03:15:00,59.8,56.2,29.98,West,277,0.0,0.0,88,0.00,OVC,,0.00,WeatherDisplay:10.37,2013-09-09 07:15:00,
2013-09-09 03:31:00,59.8,56.6,29.99,West,276,0.0,0.0,89,0.00,OVC,,0.00,WeatherDisplay:10.37,2013-09-09 07:31:00,
2013-09-09 03:45:00,60.0,56.7,29.99,West,277,0.0,0.0,89,0.00,BKN,,0.00,WeatherDisplay:10.37,2013-09-09 07:45:00,
2013-09-09 04:00:00,60.3,57.0,29.99,West,276,0.0,0.0,89,0.00,BKN,,0.00,WeatherDisplay:10.37,2013-09-09 08:00:00,
2013-09-09 04:15:00,60.5,57.2,29.99,West,277,0.0,0.0,89,0.00,BKN,,0.00,WeatherDisplay:10.37,2013-09-09 08:15:00,
2013-09-09 04:30:00,61.2,57.9,29.99,West,277,0.0,0.0,89,0.00,BKN,,0.00,WeatherDisplay:10.37,2013-09-09 08:30:00,
2013-09-09 04:45:00,61.7,58.4,29.99,West,277,0.0,1.0,89,0.00,SCT,,0.00,WeatherDisplay:10.37,2013-09-09 08:45:00,
2013-09-09 05:00:00,62.0,58.7,30.00,West,277,0.0,0.0,89,0.00,SCT,,0.00,WeatherDisplay:10.37,2013-09-09 09:00:00,
2013-09-09 05:15:00,62.1,58.8,30.00,West,277,0.0,0.0,89,0.00,SCT,,0.00,WeatherDisplay:10.37,2013-09-09 09:15:00,
2013-09-09 05:30:00,62.1,58.8,30.01,West,277,0.0,0.0,89,0.00,SCT,,0.00,WeatherDisplay:10.37,2013-09-09 09:30:00,
2013-09-09 05:45:00,62.1,58.8,30.01,West,277,0.0,0.0,89,0.00,FEW,,0.00,WeatherDisplay:10.37,2013-09-09 09:45:00,
2013-09-09 06:00:00,62.1,58.8,30.01,West,277,0.0,0.0,89,0.00,FEW,,0.00,WeatherDisplay:10.37,2013-09-09 10:00:00,
2013-09-09 06:15:00,62.1,58.8,30.01,West,276,0.0,1.0,89,0.00,FEW,,0.00,WeatherDisplay:10.37,2013-09-09 10:15:00,
2013-09-09 06:30:00,62.0,58.7,30.01,West,277,0.0,0.0,89,0.00,FEW,,0.00,WeatherDisplay:10.37,2013-09-09 10:30:00,
2013-09-09 06:45:00,61.9,58.7,30.01,West,277,0.0,0.0,89,0.00,OVC,,0.00,WeatherDisplay:10.37,2013-09-09 10:45:00,
2013-09-09 07:00:00,62.0,58.7,30.02,West,277,0.0,0.0,89,0.00,OVC,,0.00,WeatherDisplay:10.37,2013-09-09 11:00:00,
2013-09-09 07:15:00,62.0,58.7,30.02,West,276,0.0,1.0,89,0.00,OVC,,0.00,WeatherDisplay:10.37,2013-09-09 11:15:00,
2013-09-09 07:30:00,62.0,58.7,30.02,West,276,0.0,0.0,89,0.00,OVC,,0.00,WeatherDisplay:10.37,2013-09-09 11:30:00,
2013-09-09 07:45:00,62.1,58.8,30.02,West,277,0.0,0.0,89,0.00,CLR,,0.00,WeatherDisplay:10.37,2013-09-09 11:45:00,
2013-09-09 08:00:00,62.2,58.9,30.03,West,277,0.0,0.0,89,0.00,CLR,,0.00,WeatherDisplay:10.37,2013-09-09 12:00:00,
2013-09-09 08:15:00,62.5,59.5,30.03,West,277,0.0,0.0,90,0.00,CLR,,0.00,WeatherDisplay:10.37,2013-09-09 12:15:00,
2013-09-09 08:30:00,62.6,59.6,30.03,West,277,0.0,0.0,90,0.00,CLR,,0.00,WeatherDisplay:10.37,2013-09-09 12:30:00,
2013-09-09 08:45:00,62.6,59.7,30.03,West,277,0.0,1.0,90,0.00,CLR,,0.00,WeatherDisplay:10.37,2013-09-09 12:45:00,
2013-09-09 09:00:00,62.7,59.7,30.03,West,277,0.0,0.0,90,0.00,CLR,,0.00,WeatherDisplay:10.37,2013-09-09 13:00:00,
2013-09-09 09:15:00,63.1,60.1,30.03,West,277,0.0,0.0,90,0.00,CLR,,0.00,WeatherDisplay:10.37,2013-09-09 13:15:00,
2013-09-09 09:30:00,63.4,60.4,30.04,West,277,0.0,1.0,90,0.00,CLR,,0.00,WeatherDisplay:10.37,2013-09-09 13:30:00,
2013-09-09 09:45:00,64.0,61.0,30.04,West,277,0.0,2.0,90,0.00,BKN,,0.00,WeatherDisplay:10.37,2013-09-09 13:45:00,
2013-09-09 10:00:00,64.5,61.5,30.04,West,277,0.0,2.0,90,0.00,BKN,,0.00,WeatherDisplay:10.37,2013-09-09 14:00:00,
2013-09-09 10:15:00,65.2,61.9,30.04,West,277,0.0,1.0,89,0.00,BKN,,0.00,WeatherDisplay:10.37,2013-09-09 14:15:00,
2013-09-09 10:30:00,66.3,63.0,30.04,NE,44,1.0,3.0,89,0.00,BKN,,0.00,WeatherDisplay:10.37,2013-09-09 14:30:00,
2013-09-09 10:45:00,67.9,64.5,30.04,ENE,64,2.0,4.0,89,0.00,CLR,,0.00,WeatherDisplay:10.37,2013-09-09 14:45:00,
2013-09-09 11:00:00,69.6,65.3,30.04,ENE,74,1.0,4.0,86,0.00,CLR,,0.00,WeatherDisplay:10.37,2013-09-09 15:00:00,
2013-09-09 11:15:00,71.7,66.6,30.05,ENE,76,1.0,4.0,84,0.00,CLR,,0.00,WeatherDisplay:10.37,2013-09-09 15:15:00,
2013-09-09 11:30:00,73.6,67.7,30.05,ENE,71,1.0,4.0,82,0.00,CLR,,0.00,WeatherDisplay:10.37,2013-09-09 15:30:00,
2013-09-09 11:45:00,75.1,68.5,30.04,ENE,59,1.0,5.0,80,0.00,CLR,,0.00,WeatherDisplay:10.37,2013-09-09 15:45:00,
2013-09-09 12:00:00,76.7,69.0,30.04,ENE,67,2.0,5.0,77,0.00,CLR,,0.00,WeatherDisplay:10.37,2013-09-09 16:00:00,
2013-09-09 12:15:00,78.0,69.5,30.03,ENE,73,2.0,4.0,75,0.00,CLR,,0.00,WeatherDisplay:10.37,2013-09-09 16:15:00,
2013-09-09 12:30:00,78.7,70.1,30.03,East,94,1.0,4.0,75,0.00,CLR,,0.00,WeatherDisplay:10.37,2013-09-09 16:30:00,
2013-09-09 12:44:00,80.0,69.3,30.03,WNW,284,0.0,5.0,70,0.00,CLR,,0.00,WeatherDisplay:10.37,2013-09-09 16:44:00,
2013-09-09 13:00:00,80.5,69.0,30.02,ENE,65,0.0,5.0,68,0.00,CLR,,0.00,WeatherDisplay:10.37,2013-09-09 17:00:00,
2013-09-09 13:15:00,81.2,67.4,30.02,West,272,0.0,5.0,63,0.00,CLR,,0.00,WeatherDisplay:10.37,2013-09-09 17:15:00,
2013-09-09 13:30:00,80.7,66.9,30.02,North,11,1.0,7.0,63,0.00,CLR,,0.00,WeatherDisplay:10.37,2013-09-09 17:30:00,
2013-09-09 13:45:00,81.3,66.6,30.02,WNW,296,1.0,6.0,61,0.00,SCT,,0.00,WeatherDisplay:10.37,2013-09-09 17:45:00,
2013-09-09 14:00:00,82.7,65.9,30.02,WSW,250,0.0,6.0,57,0.00,SCT,,0.00,WeatherDisplay:10.37,2013-09-09 18:00:00,
2013-09-09 14:15:00,82.7,65.9,30.01,West,265,3.0,9.0,57,0.00,SCT,,0.00,WeatherDisplay:10.37,2013-09-09 18:15:00,
2013-09-09 14:30:00,83.0,65.7,30.01,NNE,23,3.0,12.0,56,0.00,SCT,,0.00,WeatherDisplay:10.37,2013-09-09 18:30:00,
2013-09-09 14:45:00,82.7,67.4,30.01,NW,309,0.0,9.0,60,0.00,SCT,,0.00,WeatherDisplay:10.37,2013-09-09 18:45:00,
2013-09-09 15:00:00,82.7,65.9,30.01,West,273,3.0,12.0,57,0.00,SCT,,0.00,WeatherDisplay:10.37,2013-09-09 19:00:00,
2013-09-09 15:14:00,82.9,65.6,30.00,NW,311,1.0,8.0,56,0.00,SCT,,0.00,WeatherDisplay:10.37,2013-09-09 19:14:00,
2013-09-09 15:30:00,83.5,67.2,30.00,West,279,0.0,10.0,58,0.00,SCT,,0.00,WeatherDisplay:10.37,2013-09-09 19:30:00,
2013-09-09 15:45:00,83.2,66.9,30.00,North,2,2.0,7.0,58,0.00,BKN,,0.00,WeatherDisplay:10.37,2013-09-09 19:45:00,
2013-09-09 16:00:00,82.4,66.6,30.00,NE,45,1.0,6.0,59,0.00,BKN,,0.00,WeatherDisplay:10.37,2013-09-09 20:00:00,
2013-09-09 16:14:00,81.3,67.0,30.00,WNW,295,1.0,6.0,62,0.00,BKN,,0.00,WeatherDisplay:10.37,2013-09-09 20:14:00,
2013-09-09 16:30:00,80.0,66.3,30.00,West,271,0.0,5.0,63,0.00,BKN,,0.00,WeatherDisplay:10.37,2013-09-09 20:30:00,
2013-09-09 16:44:00,80.9,66.7,30.00,NW,308,1.0,7.0,62,0.00,BKN,,0.00,WeatherDisplay:10.37,2013-09-09 20:44:00,
2013-09-09 17:00:00,81.2,66.5,29.99,North,353,2.0,6.0,61,0.00,BKN,,0.00,WeatherDisplay:10.37,2013-09-09 21:00:00,
2013-09-09 17:14:00,81.1,66.3,30.00,North,352,2.0,7.0,61,0.00,BKN,,0.00,WeatherDisplay:10.37,2013-09-09 21:14:00,
2013-09-09 17:30:00,80.8,65.6,29.99,North,349,1.0,14.0,60,0.00,BKN,,0.00,WeatherDisplay:10.37,2013-09-09 21:30:00,
2013-09-09 17:45:00,80.4,66.2,29.99,NW,324,1.0,5.0,62,0.00,BKN,,0.00,WeatherDisplay:10.37,2013-09-09 21:45:00,
2013-09-09 18:00:00,79.3,67.8,29.99,WNW,302,0.0,6.0,68,0.00,BKN,,0.00,WeatherDisplay:10.37,2013-09-09 22:00:00,
2013-09-09 18:30:00,78.1,66.2,30.00,WNW,290,2.0,6.0,67,0.00,BKN,,0.00,WeatherDisplay:10.37,2013-09-09 22:30:00,
2013-09-09 18:45:00,77.4,68.0,30.00,West,276,1.0,4.0,73,0.00,CLR,,0.00,WeatherDisplay:10.37,2013-09-09 22:45:00,
2013-09-09 19:00:00,75.4,67.7,30.00,West,268,1.0,4.0,77,0.00,CLR,,0.00,WeatherDisplay:10.37,2013-09-09 23:00:00,
2013-09-09 19:15:00,73.0,66.8,30.00,WNW,282,0.0,5.0,81,0.00,CLR,,0.00,WeatherDisplay:10.37,2013-09-09 23:15:00,
2013-09-09 19:30:00,71.7,66.3,30.02,WSW,257,0.0,4.0,83,0.00,CLR,,0.00,WeatherDisplay:10.37,2013-09-09 23:30:00,
2013-09-09 19:45:00,71.1,66.0,30.02,WSW,257,0.0,1.0,84,0.00,BKN,,0.00,WeatherDisplay:10.37,2013-09-09 23:45:00,
2013-09-09 20:00:00,70.4,65.3,30.02,WSW,257,0.0,2.0,84,0.00,BKN,,0.00,WeatherDisplay:10.37,2013-09-10 00:00:00,
2013-09-09 20:15:00,69.6,64.9,30.02,WSW,257,0.0,1.0,85,0.00,BKN,,0.00,WeatherDisplay:10.37,2013-09-10 00:15:00,
2013-09-09 20:30:00,68.9,64.2,30.02,WSW,257,0.0,1.0,85,0.00,BKN,,0.00,WeatherDisplay:10.37,2013-09-10 00:30:00,
2013-09-09 20:45:00,68.2,63.5,30.02,WSW,257,0.0,1.0,85,0.00,BKN,,0.00,WeatherDisplay:10.37,2013-09-10 00:45:00,
2013-09-09 21:00:00,67.7,63.3,30.03,WSW,257,0.0,1.0,86,0.00,BKN,,0.00,WeatherDisplay:10.37,2013-09-10 01:00:00,
2013-09-09 21:15:00,67.2,62.9,30.04,WSW,257,0.0,0.0,86,0.00,BKN,,0.00,WeatherDisplay:10.37,2013-09-10 01:15:00,
2013-09-09 21:30:00,66.7,62.4,30.05,WSW,257,0.0,0.0,86,0.00,BKN,,0.00,WeatherDisplay:10.37,2013-09-10 01:30:00,
2013-09-09 21:45:00,66.4,62.0,30.05,WSW,257,0.0,0.0,86,0.00,CLR,,0.00,WeatherDisplay:10.37,2013-09-10 01:45:00,
2013-09-09 22:00:00,66.0,61.7,30.06,WSW,257,0.0,0.0,86,0.00,CLR,,0.00,WeatherDisplay:10.37,2013-09-10 02:00:00,
2013-09-09 22:15:00,65.6,61.6,30.06,WSW,257,0.0,1.0,87,0.00,CLR,,0.00,WeatherDisplay:10.37,2013-09-10 02:15:00,
2013-09-09 22:30:00,65.3,61.3,30.07,WSW,256,0.0,0.0,87,0.00,CLR,,0.00,WeatherDisplay:10.37,2013-09-10 02:30:00,
2013-09-09 22:45:00,65.0,61.0,30.07,WSW,257,0.0,0.0,87,0.00,FEW,,0.00,WeatherDisplay:10.37,2013-09-10 02:45:00,
2013-09-09 23:00:00,64.7,60.7,30.07,WSW,257,0.0,0.0,87,0.00,FEW,,0.00,WeatherDisplay:10.37,2013-09-10 03:00:00,
2013-09-09 23:15:00,64.5,60.5,30.07,WSW,257,0.0,0.0,87,0.00,FEW,,0.00,WeatherDisplay:10.37,2013-09-10 03:15:00,
2013-09-09 23:30:00,64.2,60.2,30.07,WSW,257,0.0,0.0,87,0.00,FEW,,0.00,WeatherDisplay:10.37,2013-09-10 03:30:00,
2013-09-09 23:45:00,63.9,60.0,30.08,WSW,257,0.0,0.0,87,0.00,CLR,,0.00,WeatherDisplay:10.37,2013-09-10 03:45:00,